Time;durP1;ratioP1;P1;durP2;ratioP2;P2;SDS_P1;SDS_P2;PMS_P1;PMS_P2;Temp;Humidity;BMP_temperature;BMP_pressure;BME280_temperature;BME280_humidity;BME280_pressure;Samples;Min_cycle;Max_cycle;Signal;HPM_P1;HPM_P2
2022/07/21 00:01:50;;;;;;;7.55;5.45;;;21.60;99.90;;;;;;5014145;28;20104;-62
2022/07/21 00:04:16;;;;;;;9.85;5.18;;;21.30;99.90;;;;;;5014090;28;20038;-62
2022/07/21 00:06:43;;;;;;;9.75;5.50;;;21.30;99.90;;;;;;5011701;28;20056;-62
2022/07/21 00:09:10;;;;;;;9.90;5.55;;;21.10;99.90;;;;;;5013684;28;20048;-63
2022/07/21 00:11:36;;;;;;;9.70;5.55;;;21.20;99.90;;;;;;5013662;28;20038;-62
2022/07/21 00:14:02;;;;;;;8.48;5.70;;;21.30;99.90;;;;;;5013641;28;20061;-62
2022/07/21 00:16:28;;;;;;;14.25;6.07;;;21.30;99.90;;;;;;5012585;28;20049;-62
2022/07/21 00:18:54;;;;;;;9.13;5.03;;;21.20;99.90;;;;;;5013433;28;20050;-62
2022/07/21 00:21:19;;;;;;;11.05;5.10;;;21.20;99.90;;;;;;5013439;28;20042;-62
2022/07/21 00:23:45;;;;;;;8.80;5.80;;;21.20;99.90;;;;;;5013652;28;20092;-63
2022/07/21 00:26:12;;;;;;;10.70;5.68;;;21.30;99.90;;;;;;5013502;28;20045;-63
2022/07/21 00:28:38;;;;;;;7.70;5.30;;;21.20;99.90;;;;;;5013213;28;20042;-63
2022/07/21 00:31:04;;;;;;;8.48;5.22;;;21.20;99.90;;;;;;5013276;28;20049;-63
2022/07/21 00:33:29;;;;;;;8.70;5.93;;;21.40;99.90;;;;;;5013518;28;20030;-63
2022/07/21 00:35:55;;;;;;;13.80;5.78;;;21.30;99.90;;;;;;5013444;28;20034;-63
2022/07/21 00:38:20;;;;;;;10.10;6.22;;;21.30;99.90;;;;;;5013181;28;20038;-61
2022/07/21 00:40:46;;;;;;;11.35;6.00;;;21.20;99.90;;;;;;5012966;28;20038;-63
2022/07/21 00:43:12;;;;;;;13.40;5.90;;;21.40;99.90;;;;;;5013100;28;20034;-63
2022/07/21 00:45:37;;;;;;;7.45;5.05;;;21.20;99.90;;;;;;5013293;28;20125;-64
2022/07/21 00:48:03;;;;;;;15.35;6.47;;;21.20;99.90;;;;;;5013168;28;20038;-62
2022/07/21 00:50:31;;;;;;;20.13;9.00;;;21.20;99.90;;;;;;5012814;28;20067;-62
2022/07/21 00:52:57;;;;;;;17.45;8.85;;;21.20;99.90;;;;;;5013045;28;20045;-63
2022/07/21 00:55:26;;;;;;;16.42;8.57;;;21.20;99.90;;;;;;5013066;28;20487;-61
2022/07/21 00:57:53;;;;;;;18.92;9.18;;;20.90;99.90;;;;;;5012710;28;20478;-61
2022/07/21 01:00:22;;;;;;;18.88;8.43;;;20.80;99.90;;;;;;5012660;28;20037;-61
2022/07/21 01:02:48;;;;;;;15.32;8.57;;;20.80;99.90;;;;;;5012871;28;20480;-61
2022/07/21 01:05:15;;;;;;;14.15;9.07;;;21.00;99.90;;;;;;5012894;28;20065;-61
2022/07/21 01:07:43;;;;;;;18.55;9.75;;;20.90;99.90;;;;;;5012733;28;20402;-61
2022/07/21 01:10:10;;;;;;;13.70;8.93;;;20.60;99.90;;;;;;5012261;28;20126;-61
2022/07/21 01:12:36;;;;;;;14.30;8.75;;;20.60;99.90;;;;;;5012903;28;20042;-61
2022/07/21 01:15:02;;;;;;;17.85;9.48;;;20.60;99.90;;;;;;5012817;28;20096;-61
2022/07/21 01:17:28;;;;;;;15.15;9.00;;;20.40;99.90;;;;;;5012502;28;20112;-61
2022/07/21 01:19:53;;;;;;;14.48;10.02;;;20.10;99.90;;;;;;5012197;28;20439;-61
2022/07/21 01:22:19;;;;;;;13.10;8.95;;;20.60;99.90;;;;;;5012483;28;20522;-61
2022/07/21 01:24:45;;;;;;;14.85;9.02;;;20.40;99.90;;;;;;5012112;28;20511;-61
2022/07/21 01:27:11;;;;;;;16.63;9.57;;;20.30;99.90;;;;;;5012677;28;20076;-61
2022/07/21 01:29:37;;;;;;;11.60;9.50;;;20.50;99.90;;;;;;5010566;28;20459;-61
2022/07/21 01:32:04;;;;;;;15.55;9.70;;;20.10;99.90;;;;;;5012502;28;20451;-60
2022/07/21 01:34:30;;;;;;;16.63;10.43;;;20.10;99.90;;;;;;5012358;28;20042;-61
2022/07/21 01:36:55;;;;;;;15.90;10.02;;;20.10;99.90;;;;;;5012326;28;20530;-61
2022/07/21 01:42:05;;;;;;;16.58;10.00;;;20.50;99.90;;;;;;5012455;28;20074;-61
2022/07/21 01:44:31;;;;;;;15.00;10.57;;;20.50;99.90;;;;;;5012241;28;20436;-60
2022/07/21 01:46:57;;;;;;;16.55;11.48;;;20.50;99.90;;;;;;5012201;28;20079;-60
2022/07/21 01:49:22;;;;;;;14.60;9.45;;;20.10;99.90;;;;;;5011734;28;20042;-61
2022/07/21 01:51:49;;;;;;;13.23;9.07;;;20.40;99.90;;;;;;5012046;28;20045;-61
2022/07/21 01:54:16;;;;;;;15.05;10.15;;;20.40;99.90;;;;;;5012229;28;20038;-61
2022/07/21 01:56:41;;;;;;;15.55;10.48;;;20.40;99.90;;;;;;5012241;28;20095;-61
2022/07/21 01:59:07;;;;;;;16.73;11.75;;;20.00;99.90;;;;;;5011918;28;20041;-61
2022/07/21 02:01:34;;;;;;;14.05;10.57;;;20.00;99.90;;;;;;5011859;28;20038;-61
2022/07/21 02:04:02;;;;;;;11.52;9.70;;;20.10;99.90;;;;;;5011999;28;20245;-61
2022/07/21 02:06:28;;;;;;;16.45;11.35;;;20.00;99.90;;;;;;5011904;28;20593;-61
2022/07/21 02:08:54;;;;;;;15.38;10.75;;;19.90;99.90;;;;;;5011923;28;20037;-61
2022/07/21 02:11:21;;;;;;;21.88;12.10;;;20.10;99.90;;;;;;5011333;28;20113;-61
2022/07/21 02:13:47;;;;;;;19.15;11.82;;;20.10;99.90;;;;;;5011584;28;20038;-61
2022/07/21 02:16:13;;;;;;;19.40;11.80;;;19.80;99.90;;;;;;5011405;28;20491;-61
2022/07/21 02:18:39;;;;;;;15.90;11.25;;;19.60;99.90;;;;;;5011522;28;20041;-61
2022/07/21 02:21:05;;;;;;;15.15;11.20;;;19.90;99.90;;;;;;5011202;28;20034;-61
2022/07/21 02:23:32;;;;;;;16.25;10.93;;;19.60;99.90;;;;;;5011757;28;20107;-61
2022/07/21 02:25:58;;;;;;;16.55;12.43;;;19.60;99.90;;;;;;5011855;28;20034;-61
2022/07/21 02:28:25;;;;;;;17.38;11.60;;;19.80;99.90;;;;;;5011682;28;20030;-61
2022/07/21 02:30:50;;;;;;;15.35;12.05;;;19.80;99.90;;;;;;5012265;28;20048;-61
2022/07/21 02:33:17;;;;;;;17.98;12.32;;;19.60;99.90;;;;;;5015714;28;20410;-61
2022/07/21 02:35:43;;;;;;;17.92;11.32;;;19.60;99.90;;;;;;5015592;28;20042;-61
2022/07/21 02:38:09;;;;;;;19.42;13.13;;;19.70;99.90;;;;;;5015586;28;20125;-62
2022/07/21 02:40:35;;;;;;;17.38;12.48;;;19.40;99.90;;;;;;5015466;28;20069;-61
2022/07/21 02:43:01;;;;;;;18.63;12.90;;;19.50;99.90;;;;;;5015637;28;20474;-61
2022/07/21 02:45:26;;;;;;;22.75;13.40;;;19.80;99.90;;;;;;5015575;28;20053;-61
2022/07/21 02:47:59;;;;;;;17.35;13.35;;;19.60;99.90;;;;;;5015318;28;20518;-60
2022/07/21 02:50:27;;;;;;;16.33;12.85;;;19.60;99.90;;;;;;5014964;28;20045;-61
2022/07/21 02:53:01;;;;;;;21.17;12.48;;;19.50;99.90;;;;;;5015509;28;20038;-61
2022/07/21 02:55:27;;;;;;;17.90;12.43;;;19.50;99.90;;;;;;5015275;28;20508;-61
2022/07/21 02:58:20;;;;;;;17.85;13.18;;;19.50;99.90;;;;;;5015228;28;20084;-61
2022/07/21 03:00:53;;;;;;;20.85;13.25;;;19.80;99.90;;;;;;5014902;28;20045;-61
2022/07/21 03:03:20;;;;;;;;;;;19.80;99.90;;;;;;5015775;28;20046;-61
2022/07/21 03:05:46;;;;;;;20.60;14.13;;;19.70;99.90;;;;;;5015189;28;19922;-61
2022/07/21 03:08:12;;;;;;;18.42;13.40;;;19.70;99.90;;;;;;5015102;28;20042;-61
2022/07/21 03:10:38;;;;;;;23.80;13.25;;;19.60;99.90;;;;;;5014608;28;20042;-61
2022/07/21 03:13:05;;;;;;;15.10;13.20;;;19.60;99.90;;;;;;5014894;28;20554;-61
2022/07/21 03:15:31;;;;;;;15.50;12.48;;;19.60;99.90;;;;;;5015134;28;20045;-61
2022/07/21 03:17:57;;;;;;;15.88;12.05;;;19.50;99.90;;;;;;5014957;28;20083;-61
2022/07/21 03:20:24;;;;;;;16.48;12.70;;;19.60;99.90;;;;;;5014613;28;20050;-61
2022/07/21 03:22:50;;;;;;;18.20;13.18;;;19.80;99.90;;;;;;5014895;28;20042;-61
2022/07/21 03:25:16;;;;;;;19.83;14.23;;;19.80;99.90;;;;;;5014741;28;20042;-61
2022/07/21 03:27:42;;;;;;;17.70;12.80;;;19.60;99.90;;;;;;5014498;28;20501;-61
2022/07/21 03:30:09;;;;;;;22.02;13.35;;;19.60;99.90;;;;;;5014440;28;20122;-61
2022/07/21 03:32:35;;;;;;;19.48;13.65;;;19.70;99.90;;;;;;5014739;28;20403;-61
2022/07/21 03:35:02;;;;;;;20.65;13.73;;;19.80;99.90;;;;;;5013290;28;20126;-61
2022/07/21 03:37:28;;;;;;;23.63;14.90;;;19.70;99.90;;;;;;5014564;28;20048;-61
2022/07/21 03:39:54;;;;;;;19.55;12.90;;;19.70;99.90;;;;;;5013989;28;20475;-61
2022/07/21 03:42:20;;;;;;;18.48;13.55;;;19.80;99.90;;;;;;5014006;28;20033;-61
2022/07/21 03:44:46;;;;;;;18.58;13.63;;;19.70;99.90;;;;;;5014664;28;20038;-61
2022/07/21 03:47:11;;;;;;;14.73;12.13;;;19.70;99.90;;;;;;5014533;28;20462;-61
2022/07/21 03:49:37;;;;;;;20.17;13.48;;;19.90;99.90;;;;;;5014078;28;20030;-62
2022/07/21 03:52:03;;;;;;;17.05;13.23;;;19.70;99.90;;;;;;5014283;28;20116;-61
2022/07/21 03:54:28;;;;;;;15.45;12.75;;;19.90;99.90;;;;;;5014222;28;20037;-61
2022/07/21 03:56:54;;;;;;;17.83;11.93;;;19.80;99.90;;;;;;5014030;28;20120;-61
2022/07/21 03:59:19;;;;;;;17.45;12.10;;;19.70;99.90;;;;;;5013884;28;20126;-61
2022/07/21 04:01:45;;;;;;;20.42;14.32;;;19.80;99.90;;;;;;5013973;28;20053;-61
2022/07/21 04:04:11;;;;;;;20.73;14.40;;;19.90;99.90;;;;;;5014117;28;20030;-61
2022/07/21 04:06:36;;;;;;;17.00;13.32;;;19.70;99.90;;;;;;5013892;28;20038;-61
2022/07/21 04:09:03;;;;;;;17.20;12.18;;;19.70;99.90;;;;;;5013634;28;20065;-61
2022/07/21 04:11:30;;;;;;;21.95;13.98;;;19.70;99.90;;;;;;5013459;28;20464;-61
2022/07/21 04:13:55;;;;;;;15.40;12.63;;;19.70;99.90;;;;;;5013964;28;20048;-61
2022/07/21 04:16:21;;;;;;;16.10;12.05;;;19.70;99.90;;;;;;5013925;28;20038;-61
2022/07/21 04:18:47;;;;;;;17.35;13.45;;;19.80;99.90;;;;;;5013785;28;20488;-61
2022/07/21 04:21:12;;;;;;;16.73;13.25;;;19.70;99.90;;;;;;5013440;28;20552;-61
2022/07/21 04:23:38;;;;;;;14.65;12.18;;;19.70;99.90;;;;;;5013665;28;20042;-60
2022/07/21 04:26:03;;;;;;;17.80;13.10;;;19.80;99.90;;;;;;5013465;28;20113;-61
2022/07/21 04:28:29;;;;;;;17.08;13.15;;;19.60;99.90;;;;;;5013580;28;20036;-61
2022/07/21 04:30:54;;;;;;;20.30;12.82;;;19.70;99.90;;;;;;5013066;28;20045;-61
2022/07/21 04:33:20;;;;;;;17.88;13.27;;;19.80;99.90;;;;;;5013617;28;20038;-61
2022/07/21 04:35:45;;;;;;;18.77;14.40;;;19.80;99.90;;;;;;5012229;28;20542;-61
2022/07/21 04:38:11;;;;;;;19.25;14.73;;;19.60;99.90;;;;;;5013242;28;20431;-61
2022/07/21 04:40:37;;;;;;;18.60;13.05;;;19.70;99.90;;;;;;5012860;28;20549;-61
2022/07/21 04:43:02;;;;;;;21.08;13.93;;;19.70;99.90;;;;;;5013448;28;20041;-61
2022/07/21 04:45:28;;;;;;;20.63;15.30;;;19.70;99.90;;;;;;5013396;28;20128;-60
2022/07/21 04:47:55;;;;;;;21.17;14.73;;;19.80;99.90;;;;;;5012074;28;20053;-62
2022/07/21 04:50:24;;;;;;;20.27;14.52;;;19.90;99.90;;;;;;5012864;28;20037;-62
2022/07/21 04:52:50;;;;;;;22.85;14.07;;;19.80;99.90;;;;;;5011583;28;20030;-63
2022/07/21 04:55:16;;;;;;;16.55;13.43;;;19.80;99.90;;;;;;5022692;28;20039;-63
2022/07/21 04:57:46;;;;;;;20.75;14.55;;;19.80;99.90;;;;;;5023053;28;20052;-62
2022/07/21 05:00:15;;;;;;;18.15;13.95;;;20.00;99.90;;;;;;5018678;28;20061;-62
2022/07/21 05:02:41;;;;;;;18.50;14.50;;;20.00;99.90;;;;;;5024155;28;20037;-62
2022/07/21 05:05:07;;;;;;;17.38;15.20;;;20.00;99.90;;;;;;5032622;28;20191;-62
2022/07/21 05:07:33;;;;;;;21.17;16.63;;;19.80;99.90;;;;;;5032459;28;20041;-62
2022/07/21 05:10:02;;;;;;;21.48;17.58;;;19.90;99.90;;;;;;5031893;28;20573;-62
2022/07/21 05:12:28;;;;;;;23.90;19.02;;;19.80;99.90;;;;;;5032589;28;20046;-62
2022/07/21 05:14:53;;;;;;;26.52;20.92;;;19.90;99.90;;;;;;5032551;28;20041;-62
2022/07/21 05:17:19;;;;;;;30.95;23.15;;;19.80;99.90;;;;;;5032434;28;20159;-62
2022/07/21 05:19:48;;;;;;;25.77;20.98;;;20.00;99.90;;;;;;5031960;28;20457;-62
2022/07/21 05:22:14;;;;;;;26.70;23.00;;;20.00;99.90;;;;;;5032194;28;20048;-62
2022/07/21 05:24:39;;;;;;;31.05;23.85;;;20.00;99.90;;;;;;5032392;28;20033;-62
2022/07/21 05:27:05;;;;;;;29.65;23.27;;;20.10;99.90;;;;;;5032424;28;20132;-62
2022/07/21 05:29:30;;;;;;;33.67;25.95;;;20.10;99.90;;;;;;5030706;28;20038;-62
2022/07/21 05:31:56;;;;;;;36.08;26.50;;;20.20;99.90;;;;;;5032292;28;20120;-62
2022/07/21 05:34:21;;;;;;;35.55;26.27;;;20.10;99.90;;;;;;5032118;28;20048;-62
2022/07/21 05:36:47;;;;;;;33.42;27.58;;;20.20;99.90;;;;;;5031929;28;20099;-62
2022/07/21 05:39:13;;;;;;;36.85;28.15;;;20.00;99.90;;;;;;5031360;28;20041;-64
2022/07/21 05:41:39;;;;;;;40.40;29.00;;;20.00;99.90;;;;;;5032146;28;20045;-64
2022/07/21 05:44:04;;;;;;;34.30;27.65;;;20.20;99.90;;;;;;5032074;28;20125;-64
2022/07/21 05:46:30;;;;;;;36.80;29.38;;;20.00;99.90;;;;;;5031983;28;20041;-64
2022/07/21 05:48:55;;;;;;;35.88;27.98;;;20.10;99.90;;;;;;5031713;28;20045;-65
2022/07/21 05:51:21;;;;;;;39.58;27.58;;;20.10;99.90;;;;;;5031465;28;20509;-63
2022/07/21 05:53:46;;;;;;;39.75;28.02;;;20.00;99.90;;;;;;5032041;28;20037;-64
2022/07/21 05:56:12;;;;;;;40.08;29.73;;;20.00;99.90;;;;;;5030821;28;20040;-65
2022/07/21 05:58:38;;;;;;;34.33;27.88;;;19.90;99.90;;;;;;5031779;28;20116;-65
2022/07/21 06:01:12;;;;;;;36.60;27.63;;;20.20;99.90;;;;;;5031520;28;20076;-65
2022/07/21 06:03:47;;;;;;;33.00;27.40;;;20.10;99.90;;;;;;5031700;28;20064;-64
2022/07/21 06:06:15;;;;;;;32.10;26.65;;;20.20;99.90;;;;;;5031660;28;20431;-64
2022/07/21 06:08:42;;;;;;;30.52;25.05;;;20.20;99.90;;;;;;5031698;28;20037;-65
2022/07/21 06:11:09;;;;;;;37.08;26.98;;;20.50;99.90;;;;;;5031556;28;20080;-64
2022/07/21 06:13:35;;;;;;;29.27;23.67;;;20.70;99.90;;;;;;5031668;28;20038;-64
2022/07/21 06:16:01;;;;;;;32.95;27.00;;;20.50;99.90;;;;;;5031667;28;20063;-64
2022/07/21 06:18:27;;;;;;;34.40;26.45;;;20.70;99.90;;;;;;5031400;28;20038;-64
2022/07/21 06:20:52;;;;;;;32.90;26.52;;;20.70;99.90;;;;;;5031388;28;20045;-65
2022/07/21 06:23:18;;;;;;;33.67;25.70;;;20.80;99.90;;;;;;5031706;28;20521;-65
2022/07/21 06:25:44;;;;;;;30.55;25.58;;;20.60;99.90;;;;;;5031693;28;20127;-64
2022/07/21 06:28:09;;;;;;;34.35;27.80;;;20.80;99.90;;;;;;5031357;28;20041;-65
2022/07/21 06:30:35;;;;;;;35.70;29.05;;;20.80;99.90;;;;;;5031116;28;20041;-65
2022/07/21 06:33:00;;;;;;;36.60;28.02;;;20.90;99.90;;;;;;5031358;28;20033;-65
2022/07/21 06:35:26;;;;;;;32.80;27.88;;;21.00;99.90;;;;;;5031617;28;20069;-63
2022/07/21 06:37:51;;;;;;;37.58;28.38;;;20.90;99.90;;;;;;5031665;28;20034;-64
2022/07/21 06:40:17;;;;;;;29.80;26.48;;;20.90;99.90;;;;;;5031208;28;20037;-64
2022/07/21 06:42:43;;;;;;;33.58;26.70;;;20.80;99.90;;;;;;5031404;28;20045;-65
2022/07/21 06:45:08;;;;;;;33.55;25.02;;;20.90;99.90;;;;;;5031364;28;20041;-64
2022/07/21 06:47:34;;;;;;;34.75;27.52;;;20.80;99.90;;;;;;5031316;28;20033;-64
2022/07/21 06:50:02;;;;;;;36.30;27.35;;;20.80;99.90;;;;;;5030801;28;20055;-64
2022/07/21 06:52:32;;;;;;;32.53;27.40;;;20.80;99.90;;;;;;5031185;28;20430;-64
2022/07/21 06:54:59;;;;;;;33.70;27.65;;;20.60;99.90;;;;;;5031357;28;20037;-64
2022/07/21 06:57:24;;;;;;;34.92;28.15;;;20.60;99.90;;;;;;5031167;28;20048;-64
2022/07/21 06:59:50;;;;;;;33.90;28.40;;;20.70;99.90;;;;;;5030804;28;20034;-64
2022/07/21 07:02:15;;;;;;;32.20;27.77;;;20.50;99.90;;;;;;5030565;28;20067;-64
2022/07/21 07:04:43;;;;;;;37.85;28.35;;;20.70;99.90;;;;;;5031305;28;20041;-64
2022/07/21 07:07:09;;;;;;;35.40;29.88;;;20.70;99.90;;;;;;5031333;28;20395;-64
2022/07/21 07:09:34;;;;;;;39.05;31.38;;;20.70;99.90;;;;;;5030649;28;20483;-64
2022/07/21 07:12:03;;;;;;;34.25;29.30;;;20.50;99.90;;;;;;5031171;28;20040;-64
2022/07/21 07:14:30;;;;;;;33.97;28.95;;;20.60;99.90;;;;;;5031162;28;20503;-64
2022/07/21 07:16:56;;;;;;;36.30;30.40;;;20.30;99.90;;;;;;5033032;28;20060;-65
2022/07/21 07:19:21;;;;;;;34.40;29.50;;;20.30;99.90;;;;;;5034418;28;20037;-64
2022/07/21 07:21:47;;;;;;;37.70;29.50;;;20.20;99.90;;;;;;5034833;28;20121;-64
2022/07/21 07:24:12;;;;;;;37.13;28.88;;;20.40;99.90;;;;;;5034646;28;20088;-64
2022/07/21 07:26:38;;;;;;;37.63;28.70;;;20.30;99.90;;;;;;5034573;28;20045;-64
2022/07/21 07:29:03;;;;;;;35.15;29.02;;;20.30;99.90;;;;;;5034293;28;20190;-65
2022/07/21 07:31:29;;;;;;;35.33;29.33;;;20.10;99.90;;;;;;5032899;28;20053;-64
2022/07/21 07:33:57;;;;;;;36.60;30.27;;;20.20;99.90;;;;;;5034612;28;20041;-65
2022/07/21 07:36:26;;;;;;;36.13;28.50;;;20.10;99.90;;;;;;5034478;28;20116;-64
2022/07/21 07:38:53;;;;;;;35.00;28.67;;;20.20;99.90;;;;;;5034138;28;20120;-65
2022/07/21 07:41:20;;;;;;;36.13;30.10;;;20.00;99.90;;;;;;5020554;28;20046;-64
2022/07/21 07:43:46;;;;;;;34.20;28.77;;;20.10;99.90;;;;;;5014299;28;20527;-64
2022/07/21 07:46:13;;;;;;;35.13;28.48;;;20.00;99.90;;;;;;5014225;28;20660;-64
2022/07/21 07:48:42;;;;;;;34.38;29.95;;;20.20;99.90;;;;;;5013286;28;20073;-64
2022/07/21 07:51:10;;;;;;;36.15;29.05;;;20.00;99.90;;;;;;5013892;28;20041;-64
2022/07/21 07:53:36;;;;;;;37.05;30.65;;;20.10;99.90;;;;;;5014442;28;20384;-64
2022/07/21 07:56:01;;;;;;;36.83;30.30;;;20.10;99.90;;;;;;5014134;28;20036;-64
2022/07/21 07:58:27;;;;;;;34.15;29.25;;;20.20;99.90;;;;;;5019546;28;20088;-63
2022/07/21 08:00:53;;;;;;;35.47;30.45;;;20.40;99.90;;;;;;5020402;28;20440;-64
2022/07/21 08:03:19;;;;;;;35.92;30.42;;;20.30;99.90;;;;;;5021459;28;20041;-64
2022/07/21 08:05:45;;;;;;;35.15;29.42;;;20.30;99.90;;;;;;5014141;28;20044;-65
2022/07/21 08:08:11;;;;;;;40.33;31.15;;;20.30;99.90;;;;;;5008833;28;20038;-65
2022/07/21 08:10:37;;;;;;;37.08;29.27;;;20.40;99.90;;;;;;5013143;28;20034;-65
2022/07/21 08:13:03;;;;;;;36.20;30.10;;;20.40;99.90;;;;;;5013210;28;20041;-65
2022/07/21 08:15:28;;;;;;;33.92;29.73;;;20.50;99.90;;;;;;5013696;28;20054;-64
2022/07/21 08:17:54;;;;;;;36.10;28.50;;;20.40;99.90;;;;;;5013316;28;20033;-64
2022/07/21 08:20:19;;;;;;;37.08;32.13;;;20.50;99.90;;;;;;5013222;28;20029;-64
2022/07/21 08:22:45;;;;;;;37.67;30.80;;;20.60;99.90;;;;;;5013387;28;20042;-64
2022/07/21 08:25:10;;;;;;;36.70;29.27;;;20.60;99.90;;;;;;5013274;28;20141;-64
2022/07/21 08:27:38;;;;;;;37.55;29.88;;;20.60;99.90;;;;;;5012428;28;20077;-64
2022/07/21 08:30:04;;;;;;;36.70;29.35;;;20.70;99.90;;;;;;5012962;28;20088;-64
2022/07/21 08:32:30;;;;;;;33.78;28.52;;;20.80;99.90;;;;;;5013554;28;20080;-64
2022/07/21 08:34:55;;;;;;;35.78;27.55;;;21.00;99.90;;;;;;5013271;28;20174;-64
2022/07/21 08:37:21;;;;;;;34.05;28.02;;;21.00;99.90;;;;;;5013287;28;20041;-64
2022/07/21 08:39:48;;;;;;;37.67;29.45;;;21.10;99.90;;;;;;5012879;28;20523;-64
2022/07/21 08:42:14;;;;;;;34.35;28.02;;;21.30;99.90;;;;;;5013167;28;20030;-64
2022/07/21 08:44:40;;;;;;;37.22;28.95;;;21.50;99.90;;;;;;5013445;28;20046;-65
2022/07/21 08:47:06;;;;;;;36.25;29.27;;;21.40;99.90;;;;;;5013325;28;20061;-65
2022/07/21 08:49:34;;;;;;;31.23;27.30;;;21.40;99.90;;;;;;5012539;28;20488;-64
2022/07/21 08:52:00;;;;;;;32.42;27.65;;;21.70;99.90;;;;;;5013106;28;20060;-65
2022/07/21 08:54:26;;;;;;;31.42;27.27;;;21.70;99.90;;;;;;5013052;28;20120;-63
2022/07/21 08:56:52;;;;;;;32.35;27.10;;;21.70;99.90;;;;;;5012883;28;20037;-64
2022/07/21 08:59:17;;;;;;;35.03;28.05;;;21.80;99.90;;;;;;5012830;28;20038;-64
2022/07/21 09:01:43;;;;;;;25.90;22.52;;;22.00;99.90;;;;;;5020801;28;20763;-64
2022/07/21 09:04:29;;;;;;;27.38;23.33;;;22.50;99.90;;;;;;5014675;28;20415;-64
2022/07/21 09:06:57;;;;;;;28.50;22.98;;;22.90;99.90;;;;;;5008682;28;20416;-64
2022/07/21 09:09:23;;;;;;;28.13;21.67;;;23.30;99.90;;;;;;5011759;28;20500;-64
2022/07/21 09:11:49;;;;;;;25.85;21.10;;;23.70;99.90;;;;;;5012595;28;20527;-64
2022/07/21 09:14:19;;;;;;;27.92;21.17;;;24.10;99.90;;;;;;5012722;28;20049;-65
2022/07/21 09:16:45;;;;;;;26.30;20.65;;;24.40;99.90;;;;;;5012619;28;20096;-64
2022/07/21 09:19:24;;;;;;;25.00;20.60;;;24.20;99.90;;;;;;5012139;28;20065;-65
2022/07/21 09:21:52;;;;;;;24.88;21.25;;;24.20;99.90;;;;;;5006088;28;20069;-64
2022/07/21 09:24:29;;;;;;;24.80;19.60;;;23.80;99.90;;;;;;5012409;28;20046;-64
2022/07/21 09:27:01;;;;;;;23.85;20.48;;;23.60;99.90;;;;;;5012233;28;20438;-64
2022/07/21 09:29:34;;;;;;;27.73;23.45;;;23.30;99.90;;;;;;5011786;28;20072;-65
2022/07/21 09:32:11;;;;;;;;;;;23.20;99.90;;;;;;5012615;28;20040;-64
2022/07/21 09:34:37;;;;;;;27.65;21.98;;;22.90;99.90;;;;;;5012377;28;19958;-64
2022/07/21 09:37:06;;;;;;;22.90;20.50;;;23.30;99.90;;;;;;5012210;28;20044;-65
2022/07/21 09:39:44;;;;;;;24.50;20.20;;;23.70;99.90;;;;;;5011108;28;20048;-64
2022/07/21 09:42:18;;;;;;;23.08;19.05;;;23.80;99.90;;;;;;5012070;28;20072;-64
2022/07/21 09:44:46;;;;;;;23.10;19.92;;;23.60;99.90;;;;;;5011762;28;20116;-64
2022/07/21 09:47:14;;;;;;;23.85;20.33;;;23.60;99.90;;;;;;5012059;28;20073;-64
2022/07/21 09:49:41;;;;;;;23.08;20.48;;;23.60;99.90;;;;;;5011231;28;20479;-64
2022/07/21 09:52:29;;;;;;;24.88;22.35;;;23.90;99.90;;;;;;5012387;28;20052;-63
2022/07/21 09:55:00;;;;;;;24.40;20.63;;;24.20;99.90;;;;;;5012120;28;20654;-64
2022/07/21 09:57:27;;;;;;;26.65;22.75;;;24.30;99.90;;;;;;5012106;28;20092;-64
2022/07/21 09:59:53;;;;;;;22.70;19.67;;;24.30;99.90;;;;;;5011952;28;20042;-64
2022/07/21 10:02:25;;;;;;;25.75;21.55;;;24.30;99.90;;;;;;5012094;28;20486;-65
2022/07/21 10:05:06;;;;;;;25.53;20.93;;;24.30;99.90;;;;;;5012067;28;20119;-64
2022/07/21 10:07:35;;;;;;;21.48;19.17;;;24.00;99.90;;;;;;5012020;28;20046;-64
2022/07/21 10:10:01;;;;;;;23.92;19.70;;;24.10;99.90;;;;;;5011769;28;20052;-64
2022/07/21 10:12:27;;;;;;;26.30;21.52;;;23.60;99.90;;;;;;5012095;28;20030;-63
2022/07/21 10:14:54;;;;;;;25.55;21.90;;;23.30;99.90;;;;;;5011777;28;20415;-63
2022/07/21 10:17:23;;;;;;;25.17;21.30;;;23.10;99.90;;;;;;5011885;28;20038;-64
2022/07/21 10:20:06;;;;;;;30.80;24.42;;;22.90;99.90;;;;;;5011390;28;20503;-64
2022/07/21 10:22:59;;;;;;;30.40;26.95;;;22.70;99.90;;;;;;5011846;28;20053;-64
2022/07/21 10:25:25;;;;;;;33.88;27.75;;;22.40;99.90;;;;;;5011942;28;20483;-64
2022/07/21 10:28:10;;;;;;;33.67;27.73;;;22.50;99.90;;;;;;5011750;28;20046;-64
2022/07/21 10:30:49;;;;;;;35.10;28.65;;;22.30;99.90;;;;;;5011236;28;20129;-64
2022/07/21 10:33:19;;;;;;;29.38;25.35;;;22.20;99.90;;;;;;5011629;28;20356;-63
2022/07/21 10:35:46;;;;;;;30.58;25.80;;;22.40;99.90;;;;;;5011840;28;20049;-64
2022/07/21 10:38:30;;;;;;;34.10;25.85;;;22.40;99.90;;;;;;5011518;28;20042;-64
2022/07/21 10:41:01;;;;;;;31.85;24.48;;;22.40;99.90;;;;;;5011339;28;20056;-64
2022/07/21 10:43:26;;;;;;;32.08;25.85;;;22.30;99.90;;;;;;5011862;28;20065;-64
2022/07/21 10:45:53;;;;;;;30.67;25.67;;;22.40;99.90;;;;;;5011688;28;20045;-64
2022/07/21 10:48:37;;;;;;;35.38;27.85;;;22.40;99.90;;;;;;5011610;28;20045;-64
2022/07/21 10:51:06;;;;;;;38.85;29.70;;;22.40;99.90;;;;;;5011928;28;20559;-64
2022/07/21 10:53:32;;;;;;;37.40;29.73;;;22.40;99.90;;;;;;5015304;28;20037;-64
2022/07/21 10:55:57;;;;;;;35.58;28.45;;;22.40;99.90;;;;;;5015467;28;20050;-64
2022/07/21 10:58:23;;;;;;;36.83;28.08;;;22.30;99.90;;;;;;5015380;28;20496;-64
2022/07/21 11:00:57;;;;;;;36.55;29.00;;;22.30;99.90;;;;;;5014879;28;20046;-64
2022/07/21 11:03:26;;;;;;;33.72;27.63;;;22.50;99.90;;;;;;5015289;28;20046;-65
2022/07/21 11:06:22;;;;;;;34.40;28.00;;;22.40;99.90;;;;;;5015150;28;20045;-63
2022/07/21 11:08:52;;;;;;;36.50;29.35;;;22.20;99.90;;;;;;5015206;28;20112;-64
2022/07/21 11:11:22;;;;;;;35.10;28.33;;;22.30;99.90;;;;;;5014783;28;20116;-65
2022/07/21 11:14:11;;;;;;;35.33;26.50;;;22.40;99.90;;;;;;5014207;28;20053;-65
2022/07/21 11:16:56;;;;;;;34.47;26.48;;;22.50;99.90;;;;;;5013658;28;20045;-65
2022/07/21 11:19:37;;;;;;;32.40;25.60;;;22.60;99.90;;;;;;5014644;28;20045;-63
2022/07/21 11:22:03;;;;;;;29.08;23.52;;;22.70;99.90;;;;;;5014733;28;20049;-65
2022/07/21 11:24:29;;;;;;;25.35;21.05;;;22.70;99.90;;;;;;5014760;28;20583;-64
2022/07/21 11:27:13;;;;;;;24.20;20.02;;;22.70;99.90;;;;;;5013987;28;20591;-64
2022/07/21 11:29:41;;;;;;;19.38;16.50;;;22.70;99.90;;;;;;5013954;28;20673;-64
2022/07/21 11:32:08;;;;;;;23.65;17.33;;;22.70;99.90;;;;;;5013738;28;20413;-66
2022/07/21 11:34:41;;;;;;;20.17;17.50;;;22.70;99.90;;;;;;5014887;28;20368;-65
2022/07/21 11:37:08;;;;;;;23.30;16.13;;;22.70;99.90;;;;;;5014212;28;20057;-64
2022/07/21 11:39:35;;;;;;;24.17;15.63;;;22.80;99.90;;;;;;5034094;23;20060;-66
2022/07/21 11:42:06;;;;;;;19.35;15.43;;;22.70;99.90;;;;;;5034380;28;20041;-65
2022/07/21 11:44:32;;;;;;;27.00;16.70;;;22.70;99.90;;;;;;5033809;28;20041;-66
2022/07/21 11:47:00;;;;;;;23.30;16.48;;;22.70;99.90;;;;;;5033812;28;20521;-66
2022/07/21 11:49:27;;;;;;;21.27;17.13;;;22.80;99.90;;;;;;5033203;28;20080;-66
2022/07/21 11:52:04;;;;;;;24.88;18.45;;;22.70;99.90;;;;;;5033746;28;20064;-65
2022/07/21 11:54:44;;;;;;;27.83;19.35;;;22.70;99.90;;;;;;5033184;28;20501;-66
2022/07/21 11:57:11;;;;;;;23.40;19.35;;;22.70;99.90;;;;;;5033833;28;20569;-66
2022/07/21 11:59:43;;;;;;;25.65;20.20;;;22.70;99.90;;;;;;5033266;28;20095;-66
2022/07/21 12:02:11;;;;;;;27.83;21.95;;;22.70;99.90;;;;;;5033107;28;20042;-65
2022/07/21 12:04:56;;;;;;;25.10;20.25;;;22.70;99.90;;;;;;5032405;28;20049;-64
2022/07/21 12:07:40;;;;;;;28.13;20.63;;;22.70;99.90;;;;;;5027549;28;20117;-67
2022/07/21 12:10:05;;;;;;;;;;;22.80;99.90;;;;;;5019047;28;20104;-65
2022/07/21 12:12:35;;;;;;;28.05;20.58;;;22.90;99.90;;;;;;5018274;28;20402;-66
2022/07/21 12:15:18;;;;;;;22.60;19.80;;;22.90;99.90;;;;;;5016429;28;20499;-65
2022/07/21 12:17:47;;;;;;;;;;;23.00;99.90;;;;;;5014304;28;20043;-67
2022/07/21 12:20:14;;;;;;;26.63;20.55;;;22.90;99.90;;;;;;5013426;28;20025;-64
2022/07/21 12:22:44;;;;;;;24.23;18.40;;;23.00;99.90;;;;;;5013576;28;20046;-65
2022/07/21 12:25:11;;;;;;;26.92;17.65;;;23.20;99.90;;;;;;5013910;28;20041;-64
2022/07/21 12:27:39;;;;;;;21.67;16.25;;;23.20;99.90;;;;;;5013776;28;20060;-68
2022/07/21 12:30:07;;;;;;;20.95;17.77;;;23.40;99.90;;;;;;4995345;28;20045;-68
2022/07/21 12:32:48;;;;;;;20.40;18.23;;;23.60;99.90;;;;;;5013623;28;20042;-69
2022/07/21 12:35:23;;;;;;;22.52;18.40;;;23.50;99.90;;;;;;4995942;28;20038;-68
2022/07/21 12:38:06;;;;;;;21.25;17.23;;;23.70;99.90;;;;;;5013394;28;20089;-68